createdAt,value
2022-10-22T00:00:14.399Z,97411.78
2022-10-22T00:02:41.618Z,97410.69
2022-10-22T00:05:09.001Z,97420.00
2022-10-22T00:07:35.903Z,97422.47
2022-10-22T00:10:05.498Z,97422.19
2022-10-22T00:12:32.438Z,97415.03
2022-10-22T00:14:59.368Z,97423.56
2022-10-22T00:17:26.193Z,97426.84
2022-10-22T00:19:52.885Z,97425.75
2022-10-22T00:22:19.582Z,97427.25
2022-10-22T00:24:46.271Z,97422.69
2022-10-22T00:27:13.919Z,97430.38
2022-10-22T00:29:40.714Z,97434.53
2022-10-22T00:32:07.846Z,97438.78
2022-10-22T00:34:34.636Z,97440.28
2022-10-22T00:37:01.475Z,97444.53
2022-10-22T00:39:29.375Z,97441.78
2022-10-22T00:41:57.825Z,97444.38
2022-10-22T00:45:15.726Z,97442.44
2022-10-22T00:48:08.425Z,97446.69
2022-10-22T00:50:52.110Z,97440.50
2022-10-22T00:53:32.739Z,97442.19
2022-10-22T00:55:59.900Z,97455.94
2022-10-22T00:58:30.885Z,97451.53
2022-10-22T01:00:59.319Z,97457.56
2022-10-22T01:03:26.097Z,97453.16
2022-10-22T01:06:02.125Z,97446.13
2022-10-22T01:08:50.072Z,97448.75
2022-10-22T01:11:47.024Z,97439.94
2022-10-22T01:14:36.473Z,97448.75
2022-10-22T01:17:11.634Z,97454.94
2022-10-22T01:20:11.787Z,97448.75
2022-10-22T01:23:03.966Z,97444.50
2022-10-22T01:26:10.377Z,97441.88
2022-10-22T01:28:51.819Z,97446.97
2022-10-22T01:31:22.439Z,97444.34
2022-10-22T01:33:53.102Z,97443.22
2022-10-22T01:36:21.197Z,97437.03
2022-10-22T01:38:52.219Z,97436.06
2022-10-22T01:41:19.244Z,97434.13
2022-10-22T01:43:45.972Z,97427.94
2022-10-22T01:46:13.895Z,97433.88
2022-10-22T01:48:57.751Z,97412.97
2022-10-22T01:51:39.095Z,97412.00
2022-10-22T01:54:14.902Z,97411.19
2022-10-22T01:57:12.679Z,97406.78
2022-10-22T02:00:05.186Z,97400.88
2022-10-22T02:02:55.199Z,97403.50
2022-10-22T02:05:55.993Z,97393.25
2022-10-22T02:08:29.346Z,97400.44
2022-10-22T02:10:58.494Z,97400.59
2022-10-22T02:13:40.582Z,97398.94
2022-10-22T02:16:10.691Z,97394.84
2022-10-22T02:18:44.006Z,97405.28
2022-10-22T02:21:11.089Z,97406.25
2022-10-22T02:23:38.644Z,97415.06
2022-10-22T02:26:18.648Z,97411.47
2022-10-22T02:29:06.675Z,97405.28
2022-10-22T02:31:39.631Z,97414.09
2022-10-22T02:34:14.517Z,97414.09
2022-10-22T02:36:46.683Z,97411.34
2022-10-22T02:39:18.460Z,97408.88
2022-10-22T02:41:45.217Z,97408.88
2022-10-22T02:44:11.992Z,97410.50
2022-10-22T02:46:40.383Z,97434.03
2022-10-22T02:49:07.217Z,97434.19
2022-10-22T02:51:34.132Z,97433.38
2022-10-22T02:54:00.849Z,97436.81
2022-10-22T02:56:27.588Z,97428.13
2022-10-22T02:58:54.374Z,97427.16
2022-10-22T03:01:21.577Z,97417.69
2022-10-22T03:03:48.307Z,97419.59
2022-10-22T03:06:15.390Z,97417.13
2022-10-22T03:08:42.488Z,97412.88
2022-10-22T03:11:09.422Z,97405.84
2022-10-22T03:13:36.448Z,97400.63
2022-10-22T03:16:03.279Z,97403.38
2022-10-22T03:18:30.090Z,97423.47
2022-10-22T03:21:35.727Z,97433.25
2022-10-22T03:24:10.747Z,97429.00
2022-10-22T03:26:41.376Z,97419.66
2022-10-22T03:29:10.768Z,97419.81
2022-10-22T03:31:37.466Z,97407.69
2022-10-22T03:34:04.233Z,97419.09
2022-10-22T03:36:33.249Z,97426.25
2022-10-22T03:39:02.330Z,97437.69
2022-10-22T03:41:29.349Z,97447.31
2022-10-22T03:43:57.467Z,97443.06
2022-10-22T03:46:24.167Z,97461.50
2022-10-22T03:48:50.860Z,97458.22
2022-10-22T03:51:17.563Z,97460.81
2022-10-22T03:53:44.462Z,97484.50
2022-10-22T03:56:13.566Z,97486.28
2022-10-22T03:58:41.503Z,97490.69
2022-10-22T04:01:13.332Z,97496.72
2022-10-22T04:03:40.777Z,97497.69
2022-10-22T04:06:13.341Z,97487.25
2022-10-22T04:08:42.226Z,97493.28
2022-10-22T04:11:10.543Z,97495.91
2022-10-22T04:13:37.789Z,97501.25
2022-10-22T04:16:26.147Z,97513.38
2022-10-22T04:18:55.444Z,97515.16
2022-10-22T04:21:22.560Z,97528.34
2022-10-22T04:23:52.658Z,97531.91
2022-10-22T04:26:20.598Z,97524.09
2022-10-22T04:28:50.191Z,97519.00
2022-10-22T04:31:20.918Z,97511.16
2022-10-22T04:33:51.844Z,97526.00
2022-10-22T04:36:19.278Z,97528.63
2022-10-22T04:38:51.583Z,97528.91
2022-10-22T04:41:23.455Z,97528.91
2022-10-22T04:43:50.880Z,97535.94
2022-10-22T04:46:18.654Z,97535.25
2022-10-22T04:48:49.087Z,97535.41
2022-10-22T04:51:20.094Z,97539.81
2022-10-22T04:53:47.368Z,97546.81
2022-10-22T04:56:24.848Z,97554.66
2022-10-22T04:58:56.248Z,97551.31
2022-10-22T05:01:30.426Z,97549.53
2022-10-22T05:04:00.985Z,97543.63
2022-10-22T05:06:29.861Z,97552.28
2022-10-22T05:09:00.989Z,97549.00
2022-10-22T05:11:33.234Z,97546.25
2022-10-22T05:14:02.632Z,97547.06
2022-10-22T05:16:30.182Z,97548.84
2022-10-22T05:19:00.084Z,97548.03
2022-10-22T05:21:27.514Z,97541.00
2022-10-22T05:23:55.702Z,97543.78
2022-10-22T05:26:23.693Z,97559.59
2022-10-22T05:28:51.260Z,97556.16
2022-10-22T05:31:19.262Z,97551.91
2022-10-22T05:33:46.772Z,97557.25
2022-10-22T05:36:18.839Z,97559.19
2022-10-22T05:38:46.033Z,97562.88
2022-10-22T05:41:22.798Z,97564.13
2022-10-22T05:43:50.701Z,97560.97
2022-10-22T05:46:22.776Z,97564.94
2022-10-22T05:49:05.100Z,97571.13
2022-10-22T05:51:36.384Z,97570.44
2022-10-22T05:54:07.480Z,97582.81
2022-10-22T05:56:35.244Z,97576.91
2022-10-22T06:01:32.743Z,97578.69
2022-10-22T06:04:02.621Z,97578.16
2022-10-22T06:06:37.982Z,97580.22
2022-10-22T06:12:10.806Z,97598.88
2022-10-22T06:14:37.549Z,97592.13
2022-10-22T06:17:04.268Z,97601.75
2022-10-22T06:19:31.218Z,97602.03
2022-10-22T06:21:58.776Z,97608.22
2022-10-22T06:24:25.621Z,97604.78
2022-10-22T06:26:52.739Z,97620.03
2022-10-22T06:29:19.544Z,97634.88
2022-10-22T06:31:46.309Z,97642.69
2022-10-22T06:34:14.701Z,97652.03
2022-10-22T06:36:44.295Z,97650.38
2022-10-22T06:39:13.620Z,97652.84
2022-10-22T06:41:40.679Z,97659.72
2022-10-22T06:44:12.675Z,97666.47
2022-10-22T06:46:43.373Z,97674.88
2022-10-22T06:49:14.612Z,97671.03
2022-10-22T06:51:41.747Z,97678.59
2022-10-22T06:54:08.881Z,97671.31
2022-10-22T06:56:35.639Z,97665.84
2022-10-22T06:59:03.412Z,97684.66
2022-10-22T07:01:34.821Z,97684.38
2022-10-22T07:04:02.648Z,97684.00
2022-10-22T07:06:30.370Z,97687.28
2022-10-22T07:08:59.498Z,97682.75
2022-10-22T07:11:38.853Z,97700.63
2022-10-22T07:14:05.748Z,97710.53
2022-10-22T07:16:32.761Z,97707.38
2022-10-22T07:19:01.832Z,97704.94
2022-10-22T07:21:30.155Z,97702.72
2022-10-22T07:23:57.906Z,97709.19
2022-10-22T07:26:25.559Z,97714.56
2022-10-22T07:28:52.496Z,97717.31
2022-10-22T07:31:19.936Z,97715.94
2022-10-22T07:33:46.680Z,97718.97
2022-10-22T07:36:17.770Z,97722.28
2022-10-22T07:38:53.317Z,97728.88
2022-10-22T07:41:20.045Z,97726.00
2022-10-22T07:43:46.804Z,97729.59
2022-10-22T07:46:13.685Z,97735.09
2022-10-22T07:48:40.778Z,97735.78
2022-10-22T07:51:08.185Z,97734.91
2022-10-22T07:53:34.974Z,97736.91
2022-10-22T07:56:01.964Z,97738.06
2022-10-22T07:58:28.915Z,97744.50
2022-10-22T08:01:00.676Z,97741.59
2022-10-22T08:03:29.068Z,97755.34
2022-10-22T08:05:56.190Z,97773.00
2022-10-22T08:08:26.929Z,97770.41
2022-10-22T08:10:59.331Z,97779.22
2022-10-22T08:13:27.460Z,97780.00
2022-10-22T08:15:57.398Z,97784.19
2022-10-22T08:18:25.239Z,97782.97
2022-10-22T08:20:53.500Z,97788.34
2022-10-22T08:23:25.843Z,97790.00
2022-10-22T08:25:57.098Z,97791.72
2022-10-22T08:28:24.052Z,97784.97
2022-10-22T08:30:51.826Z,97780.91
2022-10-22T08:33:18.538Z,97785.06
2022-10-22T08:35:52.776Z,97785.19
2022-10-22T08:38:20.111Z,97792.34
2022-10-22T08:40:52.743Z,97780.19
2022-10-22T08:43:58.958Z,97790.69
2022-10-22T08:46:38.620Z,97786.59
2022-10-22T08:49:31.669Z,97783.47
2022-10-22T08:52:00.041Z,97791.84
2022-10-22T08:54:56.022Z,97793.19
2022-10-22T08:57:42.507Z,97804.09
2022-10-22T09:00:17.824Z,97796.16
2022-10-22T09:03:31.506Z,97796.50
2022-10-22T09:06:26.071Z,97800.81
2022-10-22T09:08:56.444Z,97796.94
2022-10-22T09:11:31.068Z,97796.91
2022-10-22T09:13:59.393Z,97790.81
2022-10-22T09:16:56.537Z,97798.00
2022-10-22T09:20:02.450Z,97793.13
2022-10-22T09:22:46.334Z,97792.06
2022-10-22T09:25:32.507Z,97795.63
2022-10-22T09:27:59.315Z,97797.44
2022-10-22T09:30:35.607Z,97796.78
2022-10-22T09:33:07.047Z,97787.59
2022-10-22T09:35:44.306Z,97785.75
2022-10-22T09:38:15.509Z,97795.06
2022-10-22T09:40:52.113Z,97784.53
2022-10-22T09:43:19.317Z,97800.84
2022-10-22T09:45:48.380Z,97804.28
2022-10-22T09:48:15.042Z,97811.53
2022-10-22T09:51:05.592Z,97803.63
2022-10-22T09:53:41.459Z,97807.56
2022-10-22T09:56:20.934Z,97802.09
2022-10-22T09:58:51.177Z,97803.91
2022-10-22T10:01:34.611Z,97797.41
2022-10-22T10:04:11.050Z,97800.56
2022-10-22T10:06:41.783Z,97807.69
2022-10-22T10:09:24.110Z,97802.25
2022-10-22T10:12:14.879Z,97810.69
2022-10-22T10:15:02.662Z,97808.88
2022-10-22T10:18:07.367Z,97816.22
2022-10-22T10:21:26.573Z,97813.00
2022-10-22T10:24:14.077Z,97809.56
2022-10-22T10:26:57.975Z,97815.13
2022-10-22T10:29:34.727Z,97821.34
2022-10-22T10:32:54.999Z,97816.81
2022-10-22T10:35:49.490Z,97822.63
2022-10-22T10:38:39.670Z,97798.34
2022-10-22T10:41:33.230Z,97799.59
2022-10-22T10:58:21.063Z,97805.59
2022-10-22T11:01:01.105Z,97808.03
2022-10-22T11:03:38.783Z,97801.44
2022-10-22T11:06:15.023Z,97811.75
2022-10-22T11:08:54.959Z,97807.53
2022-10-22T11:11:38.527Z,97810.81
2022-10-22T11:14:19.828Z,97801.44
2022-10-22T11:17:35.166Z,97800.97
2022-10-22T11:20:17.023Z,97804.22
2022-10-22T11:23:17.566Z,97807.88
2022-10-22T11:25:48.940Z,97804.25
2022-10-22T11:28:28.802Z,97808.44
2022-10-22T11:31:04.982Z,97815.41
2022-10-22T11:33:57.262Z,97799.97
2022-10-22T11:36:33.758Z,97796.63
2022-10-22T11:39:03.690Z,97790.69
2022-10-22T11:41:34.473Z,97792.97
2022-10-22T11:44:25.482Z,97793.31
2022-10-22T11:47:14.652Z,97786.94
2022-10-22T11:50:17.464Z,97779.56
2022-10-22T11:53:13.342Z,97785.47
2022-10-22T11:55:51.499Z,97790.28
2022-10-22T11:58:44.819Z,97776.91
2022-10-22T12:01:11.478Z,97785.13
2022-10-22T12:03:49.138Z,97770.56
2022-10-22T12:06:15.945Z,97775.28
2022-10-22T12:08:52.876Z,97770.44
2022-10-22T12:11:27.661Z,97779.09
2022-10-22T12:14:31.786Z,97776.69
2022-10-22T12:17:17.722Z,97773.16
2022-10-22T12:19:50.030Z,97780.59
2022-10-22T12:22:32.276Z,97766.88
2022-10-22T12:25:09.779Z,97780.88
2022-10-22T12:27:40.915Z,97768.69
2022-10-22T12:30:25.099Z,97776.72
2022-10-22T12:32:56.149Z,97777.81
2022-10-22T12:35:28.715Z,97763.59
2022-10-22T12:37:58.554Z,97775.59
2022-10-22T12:40:29.201Z,97759.91
2022-10-22T12:43:05.399Z,97748.09
2022-10-22T12:45:35.519Z,97755.69
2022-10-22T12:48:24.939Z,97751.88
2022-10-22T12:50:56.575Z,97759.75
2022-10-22T12:53:37.516Z,97763.06
2022-10-22T12:56:10.364Z,97756.84
2022-10-22T12:58:45.454Z,97756.47
2022-10-22T13:01:18.474Z,97762.00
2022-10-22T13:03:50.618Z,97755.03
2022-10-22T13:06:20.211Z,97758.72
2022-10-22T13:09:07.580Z,97761.72
2022-10-22T13:11:48.417Z,97754.09
2022-10-22T13:14:39.455Z,97743.84
2022-10-22T13:17:14.860Z,97747.41
2022-10-22T13:20:06.121Z,97749.31
2022-10-22T13:22:36.893Z,97745.44
2022-10-22T13:25:15.875Z,97745.50
2022-10-22T13:27:53.539Z,97734.09
2022-10-22T13:30:32.788Z,97729.22
2022-10-22T13:33:06.662Z,97738.69
2022-10-22T13:35:37.530Z,97735.22
2022-10-22T13:38:18.177Z,97735.34
2022-10-22T13:40:45.239Z,97735.53
2022-10-22T13:43:12.194Z,97733.13
2022-10-22T13:45:39.442Z,97736.00
2022-10-22T13:48:09.359Z,97742.88
2022-10-22T13:50:36.070Z,97736.34
2022-10-22T13:53:02.789Z,97742.06
2022-10-22T13:55:30.641Z,97735.16
2022-10-22T13:58:13.245Z,97748.38
2022-10-22T14:00:44.001Z,97740.50
2022-10-22T14:03:16.176Z,97735.38
2022-10-22T14:05:45.374Z,97735.84
2022-10-22T14:08:15.698Z,97730.63
2022-10-22T14:10:42.971Z,97733.50
2022-10-22T14:13:17.769Z,97734.13
2022-10-22T14:15:49.587Z,97737.63
2022-10-22T14:18:28.838Z,97732.38
2022-10-22T14:20:58.803Z,97722.44
2022-10-22T14:23:29.574Z,97720.00
2022-10-22T14:25:57.714Z,97715.25
2022-10-22T14:28:24.911Z,97716.34
2022-10-22T14:30:52.457Z,97725.03
2022-10-22T14:33:32.654Z,97713.53
2022-10-22T14:36:00.883Z,97712.31
2022-10-22T14:38:28.628Z,97704.53
2022-10-22T14:40:56.210Z,97695.97
2022-10-22T14:43:27.461Z,97689.19
2022-10-22T14:45:54.581Z,97692.81
2022-10-22T14:48:21.421Z,97695.03
2022-10-22T14:50:48.793Z,97695.03
2022-10-22T14:53:16.759Z,97705.94
2022-10-22T14:55:47.010Z,97701.31
2022-10-22T14:58:14.178Z,97696.59
2022-10-22T15:00:42.838Z,97696.59
2022-10-22T15:03:10.768Z,97703.44
2022-10-22T15:05:43.923Z,97710.19
2022-10-22T15:08:12.823Z,97711.53
2022-10-22T15:10:40.119Z,97720.81
2022-10-22T15:13:07.045Z,97714.31
2022-10-22T15:15:36.729Z,97706.94
2022-10-22T15:18:06.137Z,97708.00
2022-10-22T15:20:32.825Z,97702.44
2022-10-22T15:23:00.361Z,97717.00
2022-10-22T15:25:27.055Z,97717.88
2022-10-22T15:27:56.540Z,97726.31
2022-10-22T15:30:28.843Z,97721.41
2022-10-22T15:32:55.570Z,97721.84
2022-10-22T15:35:22.298Z,97725.84
2022-10-22T15:37:51.621Z,97733.00
2022-10-22T15:40:18.691Z,97730.78
2022-10-22T15:42:46.541Z,97743.38
2022-10-22T15:45:13.298Z,97741.72
2022-10-22T15:47:40.270Z,97744.75
2022-10-22T15:50:08.171Z,97745.94
2022-10-22T15:52:34.884Z,97745.53
2022-10-22T15:55:04.126Z,97745.75
2022-10-22T15:57:30.908Z,97748.13
2022-10-22T15:59:57.691Z,97757.16
2022-10-22T16:02:24.585Z,97754.22
2022-10-22T16:04:51.274Z,97762.47
2022-10-22T16:07:21.051Z,97770.38
2022-10-22T16:09:50.878Z,97779.38
2022-10-22T16:12:17.562Z,97777.03
2022-10-22T16:14:44.288Z,97781.09
2022-10-22T16:17:11.014Z,97785.66
2022-10-22T16:19:38.056Z,97785.66
2022-10-22T16:22:04.842Z,97806.13
2022-10-22T16:24:31.651Z,97800.69
2022-10-22T16:26:58.572Z,97804.09
2022-10-22T16:29:25.283Z,97811.94
2022-10-22T16:31:52.009Z,97809.09
2022-10-22T16:34:18.819Z,97816.81
2022-10-22T16:36:45.698Z,97820.16
2022-10-22T16:39:12.514Z,97821.78
2022-10-22T16:41:39.261Z,97822.53
2022-10-22T16:44:08.647Z,97815.94
2022-10-22T16:46:39.417Z,97823.59
2022-10-22T16:49:07.556Z,97810.44
2022-10-22T16:51:35.400Z,97818.22
2022-10-22T16:54:03.734Z,97825.38
2022-10-22T16:56:33.552Z,97830.69
2022-10-22T16:59:00.260Z,97846.53
2022-10-22T17:01:29.580Z,97849.69
2022-10-22T17:03:59.405Z,97848.63
2022-10-22T17:06:26.677Z,97842.44
2022-10-22T17:08:53.822Z,97863.88
2022-10-22T17:11:23.895Z,97854.94
2022-10-22T17:13:53.971Z,97854.84
2022-10-22T17:16:24.316Z,97858.19
2022-10-22T17:18:53.336Z,97857.31
2022-10-22T17:21:21.147Z,97860.78
2022-10-22T17:23:48.767Z,97858.34
2022-10-22T17:26:22.634Z,97855.22
2022-10-22T17:28:50.307Z,97859.00
2022-10-22T17:31:37.253Z,97861.50
2022-10-22T17:34:14.871Z,97867.31
2022-10-22T17:36:43.026Z,97860.97
2022-10-22T17:39:18.456Z,97864.97
2022-10-22T17:41:45.950Z,97873.66
2022-10-22T17:44:13.444Z,97864.06
2022-10-22T17:46:40.540Z,97872.59
2022-10-22T17:49:17.146Z,97863.91
2022-10-22T17:51:43.930Z,97878.41
2022-10-22T17:54:10.691Z,97872.75
2022-10-22T17:56:40.006Z,97867.94
2022-10-22T17:59:09.568Z,97866.56
2022-10-22T18:01:40.147Z,97869.47
2022-10-22T18:04:09.059Z,97870.16
2022-10-22T18:06:36.563Z,97878.66
2022-10-22T18:09:09.506Z,97885.44
2022-10-22T18:11:37.710Z,97885.25
2022-10-22T18:14:05.246Z,97882.63
2022-10-22T18:16:32.053Z,97888.28
2022-10-22T18:18:58.857Z,97879.06
2022-10-22T18:21:28.857Z,97880.16
2022-10-22T18:23:57.862Z,97883.94
2022-10-22T18:26:26.950Z,97896.47
2022-10-22T18:28:55.183Z,97887.63
2022-10-22T18:31:24.373Z,97892.59
2022-10-22T18:33:51.943Z,97895.56
2022-10-22T18:36:23.732Z,97898.88
2022-10-22T18:39:00.119Z,97901.75
2022-10-22T18:41:29.277Z,97907.34
2022-10-22T18:44:02.057Z,97897.31
2022-10-22T18:46:33.569Z,97906.63
2022-10-22T18:49:01.387Z,97901.09
2022-10-22T18:51:31.438Z,97904.34
2022-10-22T18:54:05.197Z,97904.63
2022-10-22T18:56:40.594Z,97908.31
2022-10-22T18:59:14.164Z,97904.44
2022-10-22T19:01:41.265Z,97916.09
2022-10-22T19:04:08.037Z,97901.91
2022-10-22T19:06:37.092Z,97900.63
2022-10-22T19:09:05.171Z,97901.03
2022-10-22T19:11:32.456Z,97906.75
2022-10-22T19:13:59.189Z,97909.88
2022-10-22T19:16:27.066Z,97911.19
2022-10-22T19:19:04.989Z,97906.25
2022-10-22T19:21:32.160Z,97907.34
2022-10-22T19:24:00.833Z,97913.72
2022-10-22T19:26:29.487Z,97918.13
2022-10-22T19:28:57.678Z,97914.91
2022-10-22T19:31:27.062Z,97915.88
2022-10-22T19:33:56.981Z,97916.97
2022-10-22T19:36:25.290Z,97924.22
2022-10-22T19:38:52.551Z,97922.69
2022-10-22T19:41:21.872Z,97920.69
2022-10-22T19:43:51.481Z,97919.31
2022-10-22T19:46:20.236Z,97921.44
2022-10-22T19:48:47.568Z,97909.63
2022-10-22T19:51:21.491Z,97911.66
2022-10-22T19:53:49.790Z,97910.94
2022-10-22T19:56:20.398Z,97913.66
2022-10-22T19:58:47.683Z,97909.53
2022-10-22T20:01:18.282Z,97918.31
2022-10-22T20:03:45.694Z,97911.56
2022-10-22T20:06:16.506Z,97923.41
2022-10-22T20:08:43.768Z,97920.09
2022-10-22T20:11:24.726Z,97922.84
2022-10-22T20:13:52.646Z,97918.59
2022-10-22T20:16:24.161Z,97928.19
2022-10-22T20:18:52.338Z,97925.81
2022-10-22T20:21:20.182Z,97927.59
2022-10-22T20:23:51.984Z,97929.66
2022-10-22T20:26:19.154Z,97929.03
2022-10-22T20:28:45.853Z,97919.09
2022-10-22T20:31:17.354Z,97927.28
2022-10-22T20:33:44.221Z,97930.25
2022-10-22T20:36:18.772Z,97933.22
2022-10-22T20:38:47.843Z,97931.78
2022-10-22T20:41:19.271Z,97931.09
2022-10-22T20:43:47.931Z,97933.69
2022-10-22T20:46:24.398Z,97929.56
2022-10-22T20:49:07.146Z,97936.56
2022-10-22T20:51:35.852Z,97942.13
2022-10-22T20:54:03.084Z,97936.31
2022-10-22T20:56:29.840Z,97938.22
2022-10-22T20:59:04.592Z,97927.09
2022-10-22T21:01:38.194Z,97931.00
2022-10-22T21:04:06.076Z,97927.56
2022-10-22T21:06:34.123Z,97929.56
2022-10-22T21:09:00.876Z,97933.13
2022-10-22T21:11:27.668Z,97939.41
2022-10-22T21:13:54.396Z,97934.19
2022-10-22T21:16:21.116Z,97936.81
2022-10-22T21:18:48.217Z,97930.88
2022-10-22T21:21:17.429Z,97931.13
2022-10-22T21:23:44.357Z,97933.03
2022-10-22T21:26:11.779Z,97934.91
2022-10-22T21:28:39.079Z,97932.75
2022-10-22T21:31:09.963Z,97932.03
2022-10-22T21:33:39.128Z,97937.38
2022-10-22T21:36:08.847Z,97931.44
2022-10-22T21:38:37.707Z,97941.00
2022-10-22T21:41:14.517Z,97937.13
2022-10-22T21:43:43.605Z,97940.53
2022-10-22T21:46:18.029Z,97937.25
2022-10-22T21:48:45.494Z,97938.31
2022-10-22T21:51:19.280Z,97934.25
2022-10-22T21:53:47.047Z,97932.59
2022-10-22T21:56:30.344Z,97931.06
2022-10-22T21:58:57.092Z,97939.13
2022-10-22T22:01:24.935Z,97942.16
2022-10-22T22:03:52.767Z,97939.56
2022-10-22T22:06:23.705Z,97946.41
2022-10-22T22:08:53.261Z,97944.88
2022-10-22T22:11:26.350Z,97939.09
2022-10-22T22:13:56.715Z,97934.00
2022-10-22T22:16:30.377Z,97939.44
2022-10-22T22:19:00.688Z,97936.09
2022-10-22T22:21:28.492Z,97938.81
2022-10-22T22:23:57.045Z,97942.38
2022-10-22T22:26:29.670Z,97937.16
2022-10-22T22:28:59.017Z,97930.44
2022-10-22T22:31:30.922Z,97930.44
2022-10-22T22:34:07.299Z,97928.78
2022-10-22T22:36:38.450Z,97920.25
2022-10-22T22:39:08.942Z,97927.25
2022-10-22T22:41:35.760Z,97928.91
2022-10-22T22:44:02.729Z,97922.03
2022-10-22T22:46:29.459Z,97916.13
2022-10-22T22:48:56.309Z,97919.75
2022-10-22T22:51:23.213Z,97914.69
2022-10-22T22:53:50.497Z,97922.59
2022-10-22T22:56:21.315Z,97910.66
2022-10-22T22:58:48.239Z,97911.72
2022-10-22T23:01:28.713Z,97912.78
2022-10-22T23:04:03.486Z,97904.28
2022-10-22T23:06:36.081Z,97897.38
2022-10-22T23:09:09.065Z,97899.97
2022-10-22T23:11:36.390Z,97894.06
2022-10-22T23:14:06.515Z,97888.88
2022-10-22T23:16:36.736Z,97885.56
2022-10-22T23:19:05.229Z,97877.88
2022-10-22T23:21:38.861Z,97885.78
2022-10-22T23:24:10.943Z,97882.47
2022-10-22T23:26:43.579Z,97886.16
2022-10-22T23:29:24.163Z,97877.41
2022-10-22T23:31:52.471Z,97882.69
2022-10-22T23:34:23.346Z,97887.06
2022-10-22T23:36:51.213Z,97886.47
2022-10-22T23:39:22.607Z,97882.34
2022-10-22T23:41:49.527Z,97893.78
2022-10-22T23:44:16.268Z,97890.47
2022-10-22T23:46:43.476Z,97886.31
2022-10-22T23:49:11.687Z,97891.63
2022-10-22T23:51:40.018Z,97887.38
2022-10-22T23:54:13.184Z,97893.75
2022-10-22T23:56:40.153Z,97899.91
2022-10-22T23:59:08.582Z,97902.38
